Portada
METAR-TAF:

METAR-TAF

Aeroports :

Memmingen, Alemanya

latitud: 47-59-33N, longitud: 10-14-37E, altitud: 633 m

Observació

L'informe es va fer fa 27 minuts, a les 23:20 UTC
Vent 14 kt del Oest/Sud-Oest
Temperatura -1°C
Humitat 93%
Pressió 1009 hPa
Visibilitat 10 km o més

METAR: EDJA 262320Z AUTO 24014KT 9999 // FEW012/// OVC061/// M01/M02 Q1009

Hora: 00:47 (23:47 UTC)

Pronòstic

L'informe es va fer fa 6 hores i 47 minuts, a les 17:00 UTC
Pronòstic vàlid del 26 a les 18 UTC al 27 a les 03 UTC
Vent 10 kt del Oest/Sud-Oest
Visibilitat 10 km o més
Cel ennuvolat a una alçada de 3500 ft
Probabilitat 30% :
Temporalment
l' 26 a les 18 UTC al 27 a les 03 UTC
Vent 20 kt del Sud-Oest amb ràfegues de 30 kt
Visibilitat: 1500 m
Cel ennuvolat a una alçada de 800 ft, Cumulonimbus.
xàfecs de neu

TAF: EDJA 261700Z 2618/2703 24010KT 9999 BKN035 PROB30 TEMPO 2618/2703 23020G30KT 1500 SHSN BKN008CB

Observacions i pronòstics meteorològics de més de 4000 aeroports (METAR i TAF).

Les estacions disponibles són els punts grocs i vermells al mapa.

Posi el ratolí al punt desitjat per veure el nom de l'estació.

Feu clic per veure les observacions i els pronòstics meteorològics.

Per canviar el mapa: feu clic els botons verds amb una creu de color negre per apropar; al botó verd amb un guió per allunyar la imatge; o en les fletxes verdes per a mapes adjacents.


METAR-TAF: